Time;durP1;ratioP1;P1;durP2;ratioP2;P2;SDS_P1;SDS_P2;PMS_P1;PMS_P2;Temp;Humidity;BMP_temperature;BMP_pressure;BME280_temperature;BME280_humidity;BME280_pressure;Samples;Min_cycle;Max_cycle;Signal;HPM_P1;HPM_P2
2023/09/20 00:01:49;;;;;;;5.32;0.63;;;17.80;99.90;;;;;;5055086;28;20048;-71
2023/09/20 00:04:15;;;;;;;5.25;0.65;;;17.90;99.90;;;;;;5037080;28;20501;-71
2023/09/20 00:06:41;;;;;;;4.25;0.40;;;17.90;99.90;;;;;;5037101;28;20025;-71
2023/09/20 00:09:08;;;;;;;1.50;0.20;;;18.00;99.90;;;;;;5054814;28;20387;-72
2023/09/20 00:11:34;;;;;;;7.40;0.35;;;18.00;99.90;;;;;;5054986;28;20427;-71
2023/09/20 00:14:00;;;;;;;2.22;0.03;;;17.90;99.90;;;;;;5054827;28;20017;-72
2023/09/20 00:16:25;;;;;;;4.57;0.40;;;17.90;99.90;;;;;;5054795;28;20029;-72
2023/09/20 00:18:51;;;;;;;6.95;0.57;;;17.90;99.90;;;;;;5036854;28;20104;-71
2023/09/20 00:21:16;;;;;;;3.65;0.17;;;17.90;99.90;;;;;;5036915;28;20500;-72
2023/09/20 00:23:42;;;;;;;3.40;0.20;;;17.90;99.90;;;;;;5054654;28;20021;-71
2023/09/20 00:26:13;;;;;;;3.17;0.60;;;17.90;99.90;;;;;;5054654;28;20017;-72
2023/09/20 00:28:39;;;;;;;4.70;0.40;;;17.90;99.90;;;;;;5054584;28;20094;-72
2023/09/20 00:31:05;;;;;;;4.10;0.35;;;17.90;99.90;;;;;;5054493;28;20021;-72
2023/09/20 00:33:32;;;;;;;3.65;0.20;;;17.90;99.90;;;;;;5054475;28;20408;-72
2023/09/20 00:35:57;;;;;;;2.33;0.25;;;17.90;99.90;;;;;;5054394;28;20067;-72
2023/09/20 00:38:24;;;;;;;7.95;1.35;;;17.80;99.90;;;;;;5054388;28;20423;-72
2023/09/20 00:40:52;;;;;;;5.82;0.70;;;;;;;;;;5054332;28;20020;-72
2023/09/20 00:43:24;;;;;;;11.73;0.93;;;17.80;99.90;;;;;;5054216;28;20025;-72
2023/09/20 00:45:51;;;;;;;1.63;0.10;;;17.80;99.90;;;;;;5036250;28;20036;-72
2023/09/20 00:48:20;;;;;;;2.45;0.32;;;17.70;99.90;;;;;;5054608;28;20021;-71
2023/09/20 00:50:46;;;;;;;9.15;1.55;;;17.50;99.90;;;;;;5054267;28;20037;-71
2023/09/20 00:53:13;;;;;;;7.70;0.28;;;17.50;99.90;;;;;;5054322;28;20021;-72
2023/09/20 00:55:40;;;;;;;3.95;0.32;;;17.40;99.90;;;;;;5054096;28;20021;-72
2023/09/20 00:58:10;;;;;;;5.15;0.08;;;17.40;99.90;;;;;;5054214;28;20079;-71
2023/09/20 01:00:40;;;;;;;3.50;0.20;;;17.40;99.90;;;;;;5054105;28;20538;-72
2023/09/20 01:03:06;;;;;;;7.88;0.30;;;17.40;99.90;;;;;;5054046;28;20059;-71
2023/09/20 01:05:36;;;;;;;3.63;0.50;;;17.40;99.90;;;;;;5053930;28;20083;-71
2023/09/20 01:08:04;;;;;;;8.65;0.80;;;17.30;99.90;;;;;;5054052;28;20032;-71
2023/09/20 01:10:36;;;;;;;6.68;0.20;;;17.30;99.90;;;;;;5054043;28;20025;-71
2023/09/20 01:13:04;;;;;;;3.13;0.28;;;17.20;99.90;;;;;;5053662;28;20069;-72
2023/09/20 01:15:31;;;;;;;8.07;0.55;;;17.20;99.90;;;;;;5053876;28;20400;-71
2023/09/20 01:17:58;;;;;;;5.45;0.20;;;17.10;99.90;;;;;;5053706;28;20451;-71
2023/09/20 01:20:25;;;;;;;6.30;0.32;;;17.10;99.90;;;;;;5053619;28;20438;-71
2023/09/20 01:22:59;;;;;;;5.43;0.52;;;17.10;99.90;;;;;;5053707;28;20031;-71
2023/09/20 01:25:26;;;;;;;3.72;0.70;;;17.10;99.90;;;;;;5035563;28;20075;-72
2023/09/20 01:27:55;;;;;;;6.78;0.50;;;17.10;99.90;;;;;;5053415;28;20115;-71
2023/09/20 01:30:25;;;;;;;6.95;0.70;;;17.10;99.90;;;;;;5053871;28;20013;-71
2023/09/20 01:32:57;;;;;;;6.25;0.95;;;17.10;99.90;;;;;;5035570;28;20028;-71
2023/09/20 01:35:25;;;;;;;6.03;0.40;;;17.20;99.90;;;;;;5053373;28;20021;-72
2023/09/20 01:37:51;;;;;;;4.22;0.90;;;17.10;99.90;;;;;;5053361;28;20108;-72
2023/09/20 01:40:23;;;;;;;4.75;0.90;;;17.00;99.90;;;;;;5053773;28;20028;-72
2023/09/20 01:42:49;;;;;;;8.18;0.30;;;17.10;99.90;;;;;;5035379;28;20028;-72
2023/09/20 01:45:16;;;;;;;8.93;1.15;;;17.00;99.90;;;;;;5053152;28;20637;-72
2023/09/20 01:47:49;;;;;;;4.40;0.85;;;16.90;99.90;;;;;;5053170;28;20025;-71
2023/09/20 01:50:20;;;;;;;7.63;0.52;;;16.90;99.90;;;;;;5053098;28;20041;-72
2023/09/20 01:52:51;;;;;;;6.93;0.52;;;16.90;99.90;;;;;;5053064;28;20033;-72
2023/09/20 01:55:20;;;;;;;7.47;0.70;;;16.90;99.90;;;;;;5052972;28;20052;-72
2023/09/20 01:57:47;;;;;;;4.68;0.75;;;16.90;99.90;;;;;;5053026;28;20022;-71
2023/09/20 02:00:30;;;;;;;3.83;1.02;;;17.00;99.90;;;;;;5053240;28;20028;-71
2023/09/20 02:02:57;;;;;;;2.53;0.70;;;17.10;99.90;;;;;;5053205;28;20022;-71
2023/09/20 02:05:25;;;;;;;8.40;1.50;;;17.10;99.90;;;;;;5053109;28;20023;-72
2023/09/20 02:07:57;;;;;;;3.13;0.63;;;17.10;99.90;;;;;;5053165;28;20041;-71
2023/09/20 02:10:23;;;;;;;1.33;0.25;;;17.10;99.90;;;;;;5053599;28;20021;-71
2023/09/20 02:12:53;;;;;;;8.10;1.15;;;17.10;99.90;;;;;;5053035;28;20027;-71
2023/09/20 02:15:21;;;;;;;5.80;0.95;;;17.20;99.90;;;;;;5035104;28;20048;-72
2023/09/20 02:17:47;;;;;;;3.67;0.40;;;17.20;99.90;;;;;;5035005;28;20020;-71
2023/09/20 02:20:19;;;;;;;3.72;0.28;;;17.20;99.90;;;;;;5053006;28;20029;-71
2023/09/20 02:22:46;;;;;;;6.57;0.85;;;17.20;99.90;;;;;;5052969;28;20151;-72
2023/09/20 02:25:12;;;;;;;5.90;0.25;;;17.10;99.90;;;;;;5053067;28;20507;-71
2023/09/20 02:27:39;;;;;;;15.98;1.13;;;17.20;99.90;;;;;;5038969;28;20017;-71
2023/09/20 02:30:12;;;;;;;4.60;0.63;;;17.20;99.90;;;;;;5056750;28;20017;-71
2023/09/20 02:32:38;;;;;;;2.58;0.45;;;17.20;99.90;;;;;;5056814;28;20047;-72
2023/09/20 02:35:04;;;;;;;5.63;0.50;;;17.20;99.90;;;;;;5038771;28;20017;-72
2023/09/20 02:37:37;;;;;;;1.00;0.20;;;17.10;99.90;;;;;;5056634;28;20075;-72
2023/09/20 02:40:17;;;;;;;2.05;0.08;;;17.10;99.90;;;;;;5056688;28;20025;-72
2023/09/20 02:42:55;;;;;;;1.90;0.35;;;17.10;99.90;;;;;;5057134;28;20492;-72
2023/09/20 02:45:25;;;;;;;2.63;0.38;;;17.10;99.90;;;;;;5056490;28;20028;-72
2023/09/20 02:47:51;;;;;;;6.65;0.40;;;17.10;99.90;;;;;;5056506;28;20028;-72
2023/09/20 02:50:18;;;;;;;1.08;0.20;;;17.10;99.90;;;;;;5039037;28;20033;-72
2023/09/20 02:52:46;;;;;;;5.38;0.43;;;17.00;99.90;;;;;;5056386;28;20369;-71
2023/09/20 02:55:13;;;;;;;4.60;0.88;;;17.00;99.90;;;;;;5056400;28;20096;-72
2023/09/20 02:57:43;;;;;;;5.10;0.35;;;16.90;99.90;;;;;;5056322;28;20143;-72
2023/09/20 03:00:18;;;;;;;2.97;0.30;;;16.90;99.90;;;;;;5056263;28;20021;-71
2023/09/20 03:02:49;;;;;;;2.20;0.73;;;16.90;99.90;;;;;;5038279;28;20025;-72
2023/09/20 03:05:35;;;;;;;5.53;0.45;;;16.80;99.90;;;;;;5038353;28;20108;-71
2023/09/20 03:08:01;;;;;;;2.63;0.35;;;16.80;99.90;;;;;;5038386;28;20025;-72
2023/09/20 03:10:31;;;;;;;2.95;0.28;;;16.80;99.90;;;;;;5056069;28;20079;-72
2023/09/20 03:12:57;;;;;;;4.75;0.47;;;16.80;99.90;;;;;;5038132;28;20014;-72
2023/09/20 03:15:25;;;;;;;2.72;0.30;;;16.70;99.90;;;;;;5055891;28;20025;-72
2023/09/20 03:18:00;;;;;;;3.15;0.60;;;16.70;99.90;;;;;;5056345;28;20021;-72
2023/09/20 03:20:26;;;;;;;5.50;0.90;;;16.60;99.90;;;;;;5037680;28;20048;-72
2023/09/20 03:22:59;;;;;;;2.85;0.15;;;16.60;99.90;;;;;;5055548;28;20092;-72
2023/09/20 03:25:28;;;;;;;4.63;0.28;;;16.60;99.90;;;;;;5055382;28;20059;-72
2023/09/20 03:27:55;;;;;;;;;;;16.50;99.90;;;;;;5055723;28;20443;-72
2023/09/20 03:30:20;;;;;;;5.65;0.43;;;16.50;99.90;;;;;;5055464;28;19912;-71
2023/09/20 03:32:47;;;;;;;4.78;0.20;;;16.60;99.90;;;;;;5055278;28;20021;-71
2023/09/20 03:35:14;;;;;;;1.00;0.10;;;16.60;99.90;;;;;;5055224;28;20435;-71
2023/09/20 03:37:41;;;;;;;3.08;0.35;;;16.70;99.90;;;;;;5036895;28;20013;-72
2023/09/20 03:40:16;;;;;;;9.35;0.50;;;16.60;99.90;;;;;;5055301;28;20024;-71
2023/09/20 03:42:41;;;;;;;3.22;0.10;;;16.60;99.90;;;;;;5056040;28;20066;-71
2023/09/20 03:45:11;;;;;;;4.88;0.10;;;16.60;99.90;;;;;;5055372;28;20029;-72
2023/09/20 03:47:37;;;;;;;2.88;0.70;;;16.60;99.90;;;;;;5055424;28;20035;-71
2023/09/20 03:50:04;;;;;;;2.40;0.40;;;16.70;99.90;;;;;;5055338;28;20029;-71
2023/09/20 03:52:29;;;;;;;4.90;0.57;;;16.70;99.90;;;;;;5055274;28;20025;-71
2023/09/20 03:54:57;;;;;;;3.67;0.20;;;16.60;99.90;;;;;;5055237;28;20511;-71
2023/09/20 03:57:24;;;;;;;2.17;0.30;;;16.70;99.90;;;;;;5055267;28;20369;-72
2023/09/20 03:59:54;;;;;;;1.92;0.17;;;16.60;99.90;;;;;;5037475;28;20033;-71
2023/09/20 04:02:23;;;;;;;6.32;0.52;;;16.70;99.90;;;;;;5055140;28;20488;-72
2023/09/20 04:05:00;;;;;;;3.17;1.05;;;16.70;99.90;;;;;;5054979;28;20025;-72
2023/09/20 04:07:26;;;;;;;1.95;0.10;;;16.70;99.90;;;;;;5055102;28;20035;-72
2023/09/20 04:09:53;;;;;;;2.65;0.57;;;16.80;99.90;;;;;;5054820;28;20136;-71
2023/09/20 04:12:18;;;;;;;4.38;0.57;;;16.80;99.90;;;;;;5054881;28;20017;-71
2023/09/20 04:14:44;;;;;;;3.03;0.28;;;16.90;99.90;;;;;;5055306;28;20032;-72
2023/09/20 04:17:10;;;;;;;5.18;0.10;;;16.80;99.90;;;;;;5054735;28;20024;-72
2023/09/20 04:19:39;;;;;;;6.72;0.45;;;16.70;99.90;;;;;;5054728;28;20025;-71
2023/09/20 04:22:08;;;;;;;7.25;0.65;;;16.70;99.90;;;;;;5054808;28;20511;-72
2023/09/20 04:24:34;;;;;;;6.63;0.60;;;16.70;99.90;;;;;;5054610;28;20024;-72
2023/09/20 04:27:02;;;;;;;6.80;0.30;;;16.80;99.90;;;;;;5054773;28;20067;-71
2023/09/20 04:29:29;;;;;;;2.35;0.25;;;16.80;99.90;;;;;;5054619;28;20059;-73
2023/09/20 04:31:55;;;;;;;1.45;0.20;;;16.80;99.90;;;;;;5036862;28;20014;-74
2023/09/20 04:34:21;;;;;;;4.32;0.30;;;16.80;99.90;;;;;;5054381;28;20396;-73
2023/09/20 04:36:47;;;;;;;1.95;0.35;;;16.70;99.90;;;;;;5054836;28;20100;-73
2023/09/20 04:39:14;;;;;;;5.35;0.10;;;16.70;99.90;;;;;;5054371;28;20053;-73
2023/09/20 04:41:40;;;;;;;5.88;1.13;;;16.70;99.90;;;;;;5054428;28;20025;-73
2023/09/20 04:44:05;;;;;;;3.08;0.10;;;16.70;99.90;;;;;;5054210;28;20031;-73
2023/09/20 04:46:35;;;;;;;7.55;0.45;;;16.70;99.90;;;;;;5054319;28;20061;-73
2023/09/20 04:49:03;;;;;;;5.20;0.40;;;16.60;99.90;;;;;;5053311;28;20036;-73
2023/09/20 04:51:28;;;;;;;2.80;0.73;;;16.60;99.90;;;;;;5054200;28;20094;-73
2023/09/20 04:53:55;;;;;;;3.38;0.25;;;16.70;99.90;;;;;;5036094;28;20056;-73
2023/09/20 04:56:20;;;;;;;3.80;0.30;;;16.60;99.90;;;;;;5054295;28;20017;-74
2023/09/20 04:58:46;;;;;;;5.95;0.20;;;16.70;99.90;;;;;;5054186;28;20068;-74
2023/09/20 05:01:12;;;;;;;1.88;0.20;;;16.70;99.90;;;;;;5054168;28;20024;-74
2023/09/20 05:03:39;;;;;;;5.38;0.80;;;16.70;99.90;;;;;;5054341;28;20028;-74
2023/09/20 05:06:05;;;;;;;3.13;0.60;;;16.70;99.90;;;;;;5054634;28;20053;-74
2023/09/20 05:08:31;;;;;;;4.25;0.70;;;16.70;99.90;;;;;;5053617;28;20021;-73
2023/09/20 05:10:57;;;;;;;6.68;1.08;;;16.70;99.90;;;;;;5036270;28;20017;-74
2023/09/20 05:13:22;;;;;;;3.30;0.60;;;16.70;99.90;;;;;;5053762;28;20060;-73
2023/09/20 05:15:50;;;;;;;3.10;0.15;;;16.70;99.90;;;;;;5036069;28;20082;-74
2023/09/20 05:18:16;;;;;;;3.25;0.30;;;16.70;99.90;;;;;;5053904;28;20492;-73
2023/09/20 05:20:45;;;;;;;1.73;0.15;;;16.70;99.90;;;;;;5054690;28;20025;-73
2023/09/20 05:23:11;;;;;;;9.30;0.30;;;16.70;99.90;;;;;;5053720;28;20017;-73
2023/09/20 05:25:37;;;;;;;1.85;0.10;;;16.70;99.90;;;;;;5053691;28;20051;-74
2023/09/20 05:28:03;;;;;;;3.55;0.28;;;16.70;99.90;;;;;;5053727;28;20021;-73
2023/09/20 05:30:30;;;;;;;5.90;1.40;;;16.70;99.90;;;;;;5053864;28;20032;-73
2023/09/20 05:32:55;;;;;;;2.90;0.47;;;16.70;99.90;;;;;;5053524;28;20104;-74
2023/09/20 05:35:21;;;;;;;3.28;0.80;;;16.70;99.90;;;;;;5053457;28;20063;-74
2023/09/20 05:37:47;;;;;;;4.28;0.30;;;16.60;99.90;;;;;;5054184;28;20028;-74
2023/09/20 05:40:17;;;;;;;2.83;0.10;;;16.70;99.90;;;;;;5054166;28;20037;-74
2023/09/20 05:42:46;;;;;;;5.75;0.73;;;16.60;99.90;;;;;;5053959;28;20021;-74
2023/09/20 05:45:12;;;;;;;2.67;0.40;;;16.60;99.90;;;;;;5053447;28;20096;-73
2023/09/20 05:47:44;;;;;;;4.07;0.55;;;16.60;99.90;;;;;;5053280;28;20036;-73
2023/09/20 05:50:10;;;;;;;5.15;0.73;;;16.60;99.90;;;;;;5053115;28;20035;-73
2023/09/20 05:52:40;;;;;;;2.35;0.17;;;16.60;99.90;;;;;;5035547;28;20031;-73
2023/09/20 05:55:13;;;;;;;9.15;0.82;;;16.60;99.90;;;;;;5053237;28;20024;-73
2023/09/20 05:57:43;;;;;;;4.47;0.30;;;16.70;99.90;;;;;;5053662;28;20418;-73
2023/09/20 06:00:22;;;;;;;1.98;0.30;;;16.70;99.90;;;;;;5051241;28;20013;-73
2023/09/20 06:02:49;;;;;;;2.33;0.20;;;16.70;99.90;;;;;;5051678;28;20024;-73
2023/09/20 06:05:15;;;;;;;5.90;0.65;;;16.80;99.90;;;;;;5034140;28;20435;-73
2023/09/20 06:07:41;;;;;;;3.75;0.43;;;16.80;99.90;;;;;;5035166;28;20047;-73
2023/09/20 06:10:10;;;;;;;4.18;0.52;;;16.80;99.90;;;;;;5053010;28;20017;-73
2023/09/20 06:12:36;;;;;;;8.05;0.25;;;16.80;99.90;;;;;;5035375;28;20444;-73
2023/09/20 06:15:03;;;;;;;0.85;0.03;;;16.90;99.90;;;;;;5052940;28;20067;-73
2023/09/20 06:17:31;;;;;;;4.97;0.57;;;16.90;99.90;;;;;;5034982;28;20059;-73
2023/09/20 06:19:58;;;;;;;4.75;0.35;;;17.00;99.90;;;;;;5052928;28;20100;-73
2023/09/20 06:22:27;;;;;;;8.25;0.80;;;16.90;99.90;;;;;;5052985;28;20073;-73
2023/09/20 06:24:53;;;;;;;7.07;0.95;;;17.00;99.90;;;;;;5052921;28;20021;-73
2023/09/20 06:27:20;;;;;;;3.38;0.40;;;17.00;99.90;;;;;;5052833;28;20377;-73
2023/09/20 06:29:45;;;;;;;2.03;0.52;;;17.00;99.90;;;;;;5052729;28;20032;-73
2023/09/20 06:32:12;;;;;;;2.38;0.10;;;17.10;99.90;;;;;;5034947;28;20021;-73
2023/09/20 06:34:38;;;;;;;5.32;0.80;;;17.10;99.90;;;;;;5052816;28;20481;-73
2023/09/20 06:37:03;;;;;;;6.55;0.93;;;17.10;99.90;;;;;;5052748;28;20101;-73
2023/09/20 06:39:29;;;;;;;1.60;0.10;;;17.20;99.90;;;;;;5053279;28;20075;-73
2023/09/20 06:41:57;;;;;;;3.17;0.20;;;17.20;99.90;;;;;;5053318;28;20078;-73
2023/09/20 06:44:23;;;;;;;1.50;0.22;;;17.20;99.90;;;;;;5052777;28;20051;-73
2023/09/20 06:46:49;;;;;;;5.72;0.20;;;17.20;99.90;;;;;;5052752;28;20026;-73
2023/09/20 06:49:15;;;;;;;3.75;0.10;;;17.30;99.90;;;;;;5052752;28;20024;-73
2023/09/20 06:51:43;;;;;;;2.65;0.40;;;17.40;99.90;;;;;;5053164;28;20104;-74
2023/09/20 06:54:08;;;;;;;2.40;0.20;;;17.40;99.90;;;;;;5052692;28;20017;-73
2023/09/20 06:56:35;;;;;;;3.72;0.80;;;17.50;99.90;;;;;;5053238;28;20472;-73
2023/09/20 06:59:01;;;;;;;1.65;0.17;;;17.60;99.90;;;;;;5052687;28;20468;-73
2023/09/20 07:01:27;;;;;;;6.90;0.60;;;17.60;99.90;;;;;;5053205;28;20082;-73
2023/09/20 07:03:52;;;;;;;1.83;0.25;;;17.60;99.90;;;;;;5052777;28;20048;-73
2023/09/20 07:06:19;;;;;;;2.22;0.40;;;17.60;99.90;;;;;;5052750;28;20021;-73
2023/09/20 07:08:45;;;;;;;1.73;0.22;;;17.60;99.90;;;;;;5053290;28;20029;-73
2023/09/20 07:11:12;;;;;;;1.88;0.20;;;17.60;99.90;;;;;;5052876;28;20016;-73
2023/09/20 07:13:38;;;;;;;4.00;0.20;;;17.60;99.90;;;;;;5056534;28;20079;-73
2023/09/20 07:16:07;;;;;;;4.28;0.63;;;17.60;99.90;;;;;;5056019;28;20029;-73
2023/09/20 07:18:32;;;;;;;3.95;0.68;;;17.60;99.90;;;;;;5056307;28;20029;-73
2023/09/20 07:21:02;;;;;;;6.70;0.25;;;17.70;99.90;;;;;;5056073;28;20071;-74
2023/09/20 07:23:29;;;;;;;6.03;0.50;;;17.40;99.90;;;;;;5055862;28;20021;-74
2023/09/20 07:25:55;;;;;;;3.65;0.45;;;17.70;99.90;;;;;;5038145;28;20033;-73
2023/09/20 07:28:24;;;;;;;4.30;0.57;;;17.70;99.90;;;;;;5037985;28;20528;-73
2023/09/20 07:30:50;;;;;;;;;;;17.70;99.90;;;;;;5038291;28;20024;-73
2023/09/20 07:33:19;;;;;;;3.95;0.40;;;17.70;99.90;;;;;;5055951;28;20360;-73
2023/09/20 07:35:48;;;;;;;8.52;0.60;;;17.80;99.90;;;;;;5055817;28;20049;-73
2023/09/20 07:38:24;;;;;;;2.75;1.08;;;17.80;99.90;;;;;;5038070;28;20021;-73
2023/09/20 07:40:50;;;;;;;2.72;0.45;;;17.80;99.90;;;;;;5056226;28;20028;-73
2023/09/20 07:43:17;;;;;;;3.08;0.52;;;17.80;99.90;;;;;;5055627;28;20017;-73
2023/09/20 07:45:44;;;;;;;6.00;0.77;;;17.80;99.90;;;;;;5055995;28;20575;-73
2023/09/20 07:48:12;;;;;;;2.97;0.80;;;17.80;99.90;;;;;;5055425;28;20021;-73
2023/09/20 07:50:49;;;;;;;2.72;0.60;;;17.70;99.90;;;;;;5055481;28;20151;-73
2023/09/20 07:53:15;;;;;;;3.58;0.93;;;17.80;99.90;;;;;;5055538;28;20021;-73
2023/09/20 07:55:55;;;;;;;4.13;0.57;;;17.80;99.90;;;;;;5055459;28;20372;-73
2023/09/20 07:58:21;;;;;;;4.00;0.52;;;17.80;99.90;;;;;;5055472;28;20029;-73
2023/09/20 08:00:49;;;;;;;3.42;0.40;;;17.90;99.90;;;;;;5055781;28;20035;-73
2023/09/20 08:03:15;;;;;;;2.15;0.68;;;17.90;99.90;;;;;;5055212;28;20484;-73
2023/09/20 08:05:44;;;;;;;4.10;0.50;;;17.90;99.90;;;;;;5037538;28;20025;-73
2023/09/20 08:08:10;;;;;;;;;;;17.90;99.90;;;;;;5055486;28;20028;-73
2023/09/20 08:10:37;;;;;;;1.73;1.10;;;17.90;99.90;;;;;;5055027;28;19908;-73
2023/09/20 08:13:05;;;;;;;1.93;0.70;;;17.90;99.90;;;;;;5055140;28;20017;-73
2023/09/20 08:15:36;;;;;;;3.47;0.45;;;17.90;99.90;;;;;;5037020;28;20025;-73
2023/09/20 08:20:46;;;;;;;6.90;1.30;;;17.90;99.90;;;;;;5055554;28;20098;-73
2023/09/20 09:01:45;;;;;;;4.25;1.25;;;18.00;99.90;;;;;;5054437;28;20036;-73
2023/09/20 09:04:12;;;;;;;7.45;1.88;;;18.00;99.90;;;;;;5054313;28;20082;-73
2023/09/20 09:06:40;;;;;;;4.10;1.13;;;18.00;99.90;;;;;;5054290;28;20147;-73
2023/09/20 09:09:05;;;;;;;3.75;2.10;;;18.00;99.90;;;;;;5054483;28;20128;-73
2023/09/20 09:11:31;;;;;;;3.10;1.10;;;18.00;99.90;;;;;;5054585;28;20053;-73
2023/09/20 09:14:00;;;;;;;8.27;1.75;;;17.90;99.90;;;;;;5053788;28;20021;-73
2023/09/20 09:16:33;;;;;;;3.63;1.38;;;18.00;99.90;;;;;;5053959;28;20025;-73
2023/09/20 09:19:02;;;;;;;2.70;1.52;;;18.00;99.90;;;;;;5053889;28;20028;-73
2023/09/20 09:21:28;;;;;;;3.83;2.30;;;18.00;99.90;;;;;;5053776;28;20021;-73
2023/09/20 09:23:53;;;;;;;3.60;1.45;;;18.00;99.90;;;;;;5053731;28;20021;-73
2023/09/20 09:26:19;;;;;;;2.67;1.48;;;18.00;99.90;;;;;;5053618;28;20029;-73
2023/09/20 09:28:46;;;;;;;6.13;1.00;;;18.00;99.90;;;;;;5035896;28;20388;-73
2023/09/20 09:31:13;;;;;;;5.32;1.08;;;18.00;99.90;;;;;;5053544;28;20388;-73
2023/09/20 09:33:39;;;;;;;6.13;1.67;;;18.00;99.90;;;;;;5053636;28;20490;-73
2023/09/20 09:36:06;;;;;;;4.85;1.88;;;18.00;99.90;;;;;;5053006;28;20029;-73
2023/09/20 09:38:34;;;;;;;2.55;1.40;;;18.00;99.90;;;;;;5054151;28;20504;-73
2023/09/20 09:41:01;;;;;;;1.70;1.17;;;18.00;99.90;;;;;;5054190;28;20021;-73
2023/09/20 09:43:30;;;;;;;3.05;1.55;;;18.00;99.90;;;;;;5054176;28;20031;-73
2023/09/20 09:46:08;;;;;;;2.22;0.90;;;17.90;99.90;;;;;;5053266;28;20116;-73
2023/09/20 09:48:37;;;;;;;7.38;1.17;;;18.00;99.90;;;;;;5053387;28;20113;-73
2023/09/20 09:51:05;;;;;;;4.28;0.77;;;18.00;99.90;;;;;;5053539;28;20074;-73
2023/09/20 09:53:31;;;;;;;3.87;1.33;;;18.00;99.90;;;;;;5053317;28;20021;-73
2023/09/20 09:55:59;;;;;;;3.42;0.88;;;18.10;99.90;;;;;;5053299;28;20112;-73
2023/09/20 09:58:25;;;;;;;4.03;0.80;;;18.20;99.90;;;;;;5053438;28;20049;-73
2023/09/20 10:00:53;;;;;;;11.32;1.90;;;18.20;99.90;;;;;;5053426;28;20068;-73
2023/09/20 10:03:36;;;;;;;5.03;0.90;;;18.20;99.90;;;;;;5053270;28;20337;-73
2023/09/20 10:06:10;;;;;;;2.22;0.70;;;18.20;99.90;;;;;;5053499;28;20147;-73
2023/09/20 10:08:38;;;;;;;1.50;0.60;;;18.20;99.90;;;;;;5053249;28;20033;-73
2023/09/20 10:11:05;;;;;;;3.47;0.65;;;18.30;99.90;;;;;;5053525;28;20018;-74
2023/09/20 10:13:32;;;;;;;4.63;0.77;;;18.50;99.90;;;;;;5053108;28;20451;-73
2023/09/20 10:16:00;;;;;;;4.22;1.15;;;18.50;99.90;;;;;;5053182;28;20020;-73
2023/09/20 10:18:33;;;;;;;3.08;0.57;;;18.50;99.90;;;;;;5053175;28;20035;-73
2023/09/20 10:21:17;;;;;;;0.73;0.60;;;18.50;99.90;;;;;;5053192;28;20025;-73
2023/09/20 10:23:42;;;;;;;4.75;1.17;;;18.60;99.90;;;;;;5035292;28;20040;-73
2023/09/20 10:26:27;;;;;;;1.20;0.20;;;18.60;99.90;;;;;;5052956;28;20424;-73
2023/09/20 10:29:00;;;;;;;4.93;0.75;;;18.60;99.90;;;;;;5053222;28;20116;-73
2023/09/20 10:31:29;;;;;;;4.85;0.95;;;18.60;99.90;;;;;;5053132;28;20114;-73
2023/09/20 10:33:55;;;;;;;3.60;0.75;;;18.60;99.90;;;;;;5035101;28;20040;-73
2023/09/20 10:36:28;;;;;;;3.33;0.63;;;18.60;99.90;;;;;;5053088;28;20025;-73
2023/09/20 10:39:17;;;;;;;3.80;0.68;;;18.60;99.90;;;;;;5053542;28;20032;-74
2023/09/20 10:41:44;;;;;;;2.10;0.60;;;18.70;99.90;;;;;;5041031;28;20037;-73
2023/09/20 10:44:45;;;;;;;2.35;0.50;;;18.80;99.90;;;;;;5053081;28;20412;-73
2023/09/20 10:47:14;;;;;;;1.73;0.13;;;18.80;99.90;;;;;;4973806;28;20038;-73
2023/09/20 10:49:48;;;;;;;1.25;0.30;;;18.90;99.90;;;;;;5041995;28;20530;-73
2023/09/20 10:52:33;;;;;;;3.17;0.45;;;19.10;99.90;;;;;;5056849;28;20532;-73
2023/09/20 10:55:18;;;;;;;1.77;0.17;;;19.00;99.90;;;;;;5056569;28;20070;-73
2023/09/20 10:57:45;;;;;;;0.52;0.10;;;19.20;99.90;;;;;;5056914;28;20112;-73
2023/09/20 11:00:14;;;;;;;3.38;0.68;;;19.40;99.90;;;;;;5038644;28;20029;-73
2023/09/20 11:02:40;;;;;;;3.13;0.20;;;19.60;99.90;;;;;;5038642;28;20476;-73
2023/09/20 11:05:06;;;;;;;3.60;0.52;;;20.00;99.90;;;;;;5056279;28;20021;-73
2023/09/20 11:07:35;;;;;;;1.20;0.38;;;;;;;;;;5056383;28;20116;-73
2023/09/20 11:10:02;;;;;;;2.03;0.28;;;20.80;99.90;;;;;;5056317;28;20395;-73
2023/09/20 11:12:28;;;;;;;5.07;0.63;;;21.00;99.90;;;;;;5038568;28;20031;-73
2023/09/20 11:14:55;;;;;;;1.10;0.15;;;21.10;99.90;;;;;;5038320;28;20104;-73
2023/09/20 11:17:20;;;;;;;1.08;0.10;;;21.00;99.90;;;;;;5056207;28;20044;-73
2023/09/20 11:19:47;;;;;;;3.40;0.30;;;20.90;99.90;;;;;;5056348;28;20021;-73
2023/09/20 11:22:17;;;;;;;1.88;0.35;;;20.80;99.90;;;;;;5056107;28;20024;-73
2023/09/20 11:24:43;;;;;;;0.70;0.10;;;20.70;99.90;;;;;;5038096;28;20563;-73
2023/09/20 11:27:10;;;;;;;2.92;0.17;;;20.60;99.90;;;;;;5056355;28;20103;-73
2023/09/20 11:29:39;;;;;;;2.13;0.10;;;20.70;99.90;;;;;;5055987;28;20029;-73
2023/09/20 11:32:10;;;;;;;1.73;0.20;;;20.70;99.90;;;;;;5038280;28;20038;-73
2023/09/20 11:34:47;;;;;;;1.80;0.50;;;20.90;99.90;;;;;;5056590;28;20115;-71
2023/09/20 11:37:20;;;;;;;1.40;0.25;;;21.10;99.90;;;;;;5038061;28;20033;-71
2023/09/20 11:39:47;;;;;;;3.20;0.65;;;21.30;99.90;;;;;;5055900;28;20082;-71
2023/09/20 11:42:24;;;;;;;4.35;0.10;;;21.50;99.90;;;;;;5056128;28;20017;-71
2023/09/20 11:45:05;;;;;;;0.90;0.15;;;21.70;99.90;;;;;;5055809;28;20017;-71
2023/09/20 11:47:31;;;;;;;0.40;0.17;;;21.90;99.90;;;;;;5056136;28;20029;-71
2023/09/20 11:49:58;;;;;;;5.03;0.50;;;22.00;99.90;;;;;;5055715;28;20033;-71
2023/09/20 11:52:24;;;;;;;3.42;0.55;;;22.10;99.90;;;;;;5055750;28;20028;-71
2023/09/20 11:54:53;;;;;;;2.95;0.43;;;22.20;99.90;;;;;;5055593;28;20021;-71
2023/09/20 11:57:19;;;;;;;2.45;0.47;;;22.40;99.90;;;;;;5055391;28;20096;-71
2023/09/20 11:59:45;;;;;;;2.97;0.30;;;22.50;99.90;;;;;;5055351;28;20114;-71
2023/09/20 12:02:12;;;;;;;1.63;0.40;;;22.70;99.90;;;;;;5055470;28;20064;-71
2023/09/20 12:04:38;;;;;;;1.02;0.52;;;22.70;99.90;;;;;;5055275;28;20028;-71
2023/09/20 12:07:07;;;;;;;3.00;0.30;;;22.50;99.90;;;;;;5055322;28;20079;-71
2023/09/20 12:09:33;;;;;;;3.47;0.10;;;22.50;99.90;;;;;;5055169;28;20108;-71
2023/09/20 12:11:59;;;;;;;1.50;0.10;;;22.40;99.90;;;;;;5055247;28;20021;-71
2023/09/20 12:14:24;;;;;;;5.43;0.35;;;22.30;99.90;;;;;;5055017;28;20027;-71
2023/09/20 12:16:50;;;;;;;3.55;0.20;;;22.20;99.90;;;;;;5055977;28;20025;-71
2023/09/20 12:19:16;;;;;;;1.83;0.22;;;22.30;99.90;;;;;;5055098;28;20032;-71
2023/09/20 12:21:44;;;;;;;1.85;0.08;;;22.20;99.90;;;;;;5054934;28;20083;-71
2023/09/20 12:24:11;;;;;;;3.57;0.20;;;22.30;99.90;;;;;;5054839;28;20028;-71
2023/09/20 12:26:37;;;;;;;2.42;0.47;;;22.40;99.90;;;;;;5055006;28;20422;-71
2023/09/20 12:29:03;;;;;;;3.22;0.45;;;22.60;99.90;;;;;;5037025;28;20116;-71
2023/09/20 12:31:28;;;;;;;2.63;0.20;;;22.70;99.90;;;;;;5054985;28;20025;-71
2023/09/20 12:33:57;;;;;;;2.28;0.22;;;22.70;99.90;;;;;;5054715;28;20488;-71
2023/09/20 12:36:25;;;;;;;2.47;0.10;;;22.70;99.90;;;;;;5054836;28;20507;-71
2023/09/20 12:38:51;;;;;;;;;;;22.80;99.90;;;;;;5055107;28;20472;-71
2023/09/20 12:41:17;;;;;;;2.25;0.20;;;22.80;99.90;;;;;;5036809;28;19905;-71
2023/09/20 12:43:42;;;;;;;3.85;0.57;;;22.60;99.90;;;;;;5054845;28;20025;-71
2023/09/20 12:46:09;;;;;;;0.45;0.10;;;22.70;99.90;;;;;;5054919;28;20538;-71
2023/09/20 12:48:36;;;;;;;2.30;0.13;;;22.70;99.90;;;;;;5054863;28;20075;-71
2023/09/20 12:51:04;;;;;;;1.33;0.30;;;22.60;99.90;;;;;;5054613;28;20037;-71
2023/09/20 12:53:31;;;;;;;2.67;0.55;;;22.60;99.90;;;;;;5054533;28;20025;-71
2023/09/20 12:55:57;;;;;;;1.77;0.32;;;22.70;99.90;;;;;;5054253;28;20013;-71
2023/09/20 12:58:23;;;;;;;0.93;0.10;;;22.90;99.90;;;;;;5054590;28;20071;-71
2023/09/20 13:00:49;;;;;;;1.65;0.75;;;23.10;99.90;;;;;;5054182;28;20024;-71
2023/09/20 13:03:15;;;;;;;0.70;0.20;;;23.30;99.90;;;;;;5054207;28;20455;-72
2023/09/20 13:05:41;;;;;;;3.20;0.60;;;23.20;99.90;;;;;;5036554;28;20021;-71
2023/09/20 13:08:07;;;;;;;3.75;0.95;;;23.30;99.90;;;;;;5054322;28;20025;-71
2023/09/20 13:10:33;;;;;;;1.88;0.52;;;23.20;99.90;;;;;;5053595;28;20470;-71
2023/09/20 13:13:02;;;;;;;4.10;0.40;;;23.30;99.90;;;;;;5054069;28;20017;-71
2023/09/20 13:15:28;;;;;;;2.42;0.20;;;23.50;99.90;;;;;;5053845;28;20017;-71
2023/09/20 13:17:56;;;;;;;2.92;0.43;;;23.40;99.90;;;;;;5054531;28;20148;-71
2023/09/20 13:20:24;;;;;;;8.18;0.50;;;23.50;99.90;;;;;;5054042;28;20032;-71
2023/09/20 13:22:56;;;;;;;2.35;0.35;;;23.40;99.90;;;;;;5053773;28;20049;-71
2023/09/20 13:25:22;;;;;;;1.23;0.25;;;23.10;99.90;;;;;;5053940;28;20024;-71
2023/09/20 13:27:49;;;;;;;3.70;0.60;;;23.00;99.90;;;;;;5053865;28;20092;-71
2023/09/20 13:30:17;;;;;;;3.20;0.28;;;23.10;99.90;;;;;;5053901;28;20503;-71
2023/09/20 13:32:43;;;;;;;0.70;0.10;;;23.10;99.90;;;;;;5053820;28;20013;-71
2023/09/20 13:35:12;;;;;;;5.97;0.65;;;23.20;99.90;;;;;;5053952;28;20101;-71